Mac Dill Air Force Base
KMCF : now visible

Airfield :











YOU CAN JOIN US ON...

 
LOGIN :

Register | Disclaimer

   EN    FR    IT 

 









Legend :    VFR   Marginal VFR   IFR   Intensive IFR   Very Intensive IFR
Visi :
Ceiling :
>= 8 km
>= 3000ft
5 to 8 km
1000 to 3000 ft
1500m to 5 km
500 to 1000 ft
800 to 1500m
200 to 500 ft
< 800m
< 200 ft
Symbols :   Thunderstorms  Fog  Heavy snow  Heavy precipitations  Wind > 20 kt






- Airport Elevation : 14 ft


KMCF - Mac Dill Air Force Base

CURRENT METAR :
  • 231721Z AUTO 25004KT 10SM -RA FEW080 BKN120 BKN150 26/26 A3007 RMK AO2 RAB21 SLP185 FZRANO $

EXPIRED METARs :
  • 231656Z AUTO 23003KT 10SM BKN100 OVC120 25/25 A3008 RMK AO2 PK WND 26028/08 RAB00E01DZB01E02RAB02E47DZB47E52DZB52E52 TSB1557E22 SLP189 P0064 T02510249 FZRANO $
  • 231622Z AUTO 23007G16KT 9SM +RA BR FEW010 SCT017 BKN034 BKN048 BKN070 OVC090 24/23 A3011 RMK AO2 VIS 3/4 RWY05 RAB00E01DZB01E02RAB02 TSB1557E22 SLP199 FZRANO $
  • 231605Z AUTO 28009G16KT 10SM -TSRA SCT010 SCT023 BKN029 BKN035 OVC049 25/23 A3012 RMK AO2 RAB00E01DZB01E02RAB02 TSB1557 CIG 029V036 BKN029 V SCT CIG 022 RWY05 SLP202 FZRANO $
  • 231600Z AUTO 30009G15KT 10SM -TSRA SCT011 SCT023 SCT029 OVC036 26/23 A3013 RMK AO2 RAB00 TSB1557 SLP206 FZRANO $
  • 231456Z AUTO 20003KT 10SM FEW130 SCT170 SCT190 28/24 A3009 RMK AO2 SLP192 T02830243 52015 FZRANO $

TAF TAF KMCF
Valid from the 23 at 09:00 until the 24 at 15:00 UTC


230900Z 2309/2415 21009KT 9999 FEW150 QNH3000INS
BECMG 2317/2318 28009KT 8000 -SHRA FEW035 QNH3004INS
TEMPO 2318/2324 VRB10G20KT 8000 -TSRA SCT020CB BKN140
BECMG 2404/2405 VRB06KT 9999 NSW FEW015 SCT150 QNH3002INS TX32/2318Z TN23/2405Z
KZMA FIR / North America



MET'MAP, your aeronautical weather chart ! - Copyright ORBIFLY December 2007 - Disclaimer

ORBIFLY MET'MAP TEAM :

Programming & Development : Alexandra Zaïnal
Concept & original design : Baudouin d'Aumeries
Assistance for programming : Marc-Olivier Méhu
Technical & hardware support : Manuel Goepfert

Contact : metmap@orbifly.com




SOURCES & CREDITS :

   NOAA       Earth
Advisory